createdAt,value
2018-11-26T00:00:35.811Z,99233.81
2018-11-26T00:01:10.505Z,99238.50
2018-11-26T00:01:45.158Z,99230.54
2018-11-26T00:02:19.794Z,99235.77
2018-11-26T00:02:54.797Z,99234.83
2018-11-26T00:03:29.501Z,99229.84
2018-11-26T00:04:04.132Z,99230.41
2018-11-26T00:04:38.790Z,99239.34
2018-11-26T00:05:13.866Z,99236.03
2018-11-26T00:05:48.531Z,99235.05
2018-11-26T00:06:23.357Z,99244.92
2018-11-26T00:06:58.089Z,99239.22
2018-11-26T00:07:32.695Z,99232.04
2018-11-26T00:08:09.236Z,99236.11
2018-11-26T00:08:43.911Z,99240.50
2018-11-26T00:09:18.960Z,99245.05
2018-11-26T00:09:58.011Z,99227.45
2018-11-26T00:10:44.024Z,99236.34
2018-11-26T00:11:33.568Z,99242.72
2018-11-26T00:12:08.272Z,99239.48
2018-11-26T00:12:43.030Z,99241.20
2018-11-26T00:13:17.608Z,99240.41
2018-11-26T00:13:52.235Z,99240.45
2018-11-26T00:14:26.928Z,99240.06
2018-11-26T00:15:01.630Z,99241.65
2018-11-26T00:15:36.600Z,99239.52
2018-11-26T00:16:11.232Z,99240.86
2018-11-26T00:16:45.985Z,99237.49
2018-11-26T00:17:20.585Z,99244.70
2018-11-26T00:17:55.349Z,99242.62
2018-11-26T00:18:29.963Z,99239.22
2018-11-26T00:19:04.916Z,99237.62
2018-11-26T00:19:39.661Z,99241.97
2018-11-26T00:20:14.354Z,99244.61
2018-11-26T00:20:49.043Z,99243.77
2018-11-26T00:21:23.751Z,99246.27
2018-11-26T00:21:58.466Z,99246.22
2018-11-26T00:22:33.180Z,99252.76
2018-11-26T00:23:08.023Z,99248.64
2018-11-26T00:23:42.625Z,99203.05
2018-11-26T00:24:17.218Z,99246.66
2018-11-26T00:24:51.913Z,99248.73
2018-11-26T00:25:26.634Z,99242.98
2018-11-26T00:26:01.918Z,99246.47
2018-11-26T00:26:36.593Z,99242.27
2018-11-26T00:27:11.236Z,99249.58
2018-11-26T00:27:46.399Z,99245.73
2018-11-26T00:28:21.176Z,99247.41
2018-11-26T00:28:55.802Z,99247.84
2018-11-26T00:29:30.808Z,99247.84
2018-11-26T00:30:06.758Z,99243.06
2018-11-26T00:30:41.516Z,99243.95
2018-11-26T00:31:16.372Z,99245.36
2018-11-26T00:31:51.080Z,99239.92
2018-11-26T00:32:25.695Z,99237.31
2018-11-26T00:33:00.313Z,99244.17
2018-11-26T00:33:34.952Z,99240.98
2018-11-26T00:34:09.595Z,99242.97
2018-11-26T00:34:44.259Z,99237.22
2018-11-26T00:35:18.869Z,99245.28
2018-11-26T00:35:53.541Z,99235.67
2018-11-26T00:36:28.269Z,99245.95
2018-11-26T00:37:02.984Z,99243.95
2018-11-26T00:37:37.895Z,99244.34
2018-11-26T00:38:12.603Z,99244.84
2018-11-26T00:38:47.264Z,99240.37
2018-11-26T00:39:21.873Z,99241.83
2018-11-26T00:39:56.885Z,99243.63
2018-11-26T00:40:31.514Z,99237.22
2018-11-26T00:41:06.706Z,99237.27
2018-11-26T00:41:41.335Z,99239.39
2018-11-26T00:42:15.964Z,99242.17
2018-11-26T00:42:50.892Z,99241.56
2018-11-26T00:43:25.515Z,99241.11
2018-11-26T00:44:00.231Z,99243.51
2018-11-26T00:44:34.902Z,99244.34
2018-11-26T00:45:11.527Z,99233.68
2018-11-26T00:45:46.202Z,99235.98
2018-11-26T00:46:20.883Z,99235.62
2018-11-26T00:46:55.839Z,99234.84
2018-11-26T00:47:30.577Z,99238.37
2018-11-26T00:48:05.589Z,99237.53
2018-11-26T00:48:40.556Z,99234.00
2018-11-26T00:49:15.239Z,99237.01
2018-11-26T00:49:50.108Z,99237.13
2018-11-26T00:50:24.735Z,99230.41
2018-11-26T00:50:59.386Z,99237.35
2018-11-26T00:51:34.655Z,99242.94
2018-11-26T00:52:09.356Z,99236.61
2018-11-26T00:52:44.310Z,99234.04
2018-11-26T00:53:18.984Z,99236.39
2018-11-26T00:53:53.588Z,99233.86
2018-11-26T00:54:28.230Z,99239.80
2018-11-26T00:55:02.923Z,99229.57
2018-11-26T00:55:37.980Z,99241.57
2018-11-26T00:56:12.759Z,99239.92
2018-11-26T00:56:47.479Z,99236.61
2018-11-26T00:57:22.058Z,99238.23
2018-11-26T00:57:56.957Z,99232.53
2018-11-26T00:58:32.029Z,99242.72
2018-11-26T00:59:06.737Z,99240.50
2018-11-26T00:59:41.640Z,99237.27
2018-11-26T01:00:16.545Z,99237.27
2018-11-26T01:00:51.286Z,99237.58
2018-11-26T01:01:26.271Z,99242.31
2018-11-26T01:02:01.037Z,99238.81
2018-11-26T01:02:36.072Z,99232.00
2018-11-26T01:03:10.815Z,99238.81
2018-11-26T01:03:45.393Z,99240.41
2018-11-26T01:04:20.028Z,99240.54
2018-11-26T01:04:55.088Z,99241.08
2018-11-26T01:05:38.989Z,99237.75
2018-11-26T01:06:13.668Z,99233.16
2018-11-26T01:06:48.282Z,99240.72
2018-11-26T01:07:22.945Z,99233.95
2018-11-26T01:07:57.578Z,99230.09
2018-11-26T01:08:32.189Z,99236.08
2018-11-26T01:09:08.471Z,99233.50
2018-11-26T01:09:43.095Z,99238.30
2018-11-26T01:10:17.716Z,99236.69
2018-11-26T01:10:52.690Z,99232.89
2018-11-26T01:11:27.416Z,99230.86
2018-11-26T01:12:01.997Z,99235.45
2018-11-26T01:12:36.664Z,99237.27
2018-11-26T01:13:11.807Z,99232.98
2018-11-26T01:13:46.372Z,99228.69
2018-11-26T01:14:20.971Z,99224.95
2018-11-26T01:14:55.595Z,99232.31
2018-11-26T01:15:30.375Z,99232.70
2018-11-26T01:16:05.736Z,99231.82
2018-11-26T01:16:40.375Z,99229.75
2018-11-26T01:17:14.986Z,99233.99
2018-11-26T01:17:49.575Z,99233.59
2018-11-26T01:18:24.257Z,99225.55
2018-11-26T01:18:58.901Z,99234.48
2018-11-26T01:19:33.515Z,99230.98
2018-11-26T01:20:08.531Z,99228.41
2018-11-26T01:20:43.208Z,99232.66
2018-11-26T01:21:17.832Z,99231.08
2018-11-26T01:21:52.391Z,99225.36
2018-11-26T01:22:26.992Z,99225.84
2018-11-26T01:23:01.823Z,99232.76
2018-11-26T01:23:36.476Z,99231.03
2018-11-26T01:24:11.211Z,99230.36
2018-11-26T01:24:45.803Z,99230.86
2018-11-26T01:25:20.485Z,99235.62
2018-11-26T01:25:55.231Z,99233.55
2018-11-26T01:26:29.878Z,99226.78
2018-11-26T01:27:04.533Z,99231.56
2018-11-26T01:27:39.127Z,99229.91
2018-11-26T01:28:13.772Z,99226.11
2018-11-26T01:28:48.414Z,99233.37
2018-11-26T01:29:23.021Z,99229.84
2018-11-26T01:29:57.691Z,99234.61
2018-11-26T01:30:32.455Z,99230.41
2018-11-26T01:31:07.139Z,99232.04
2018-11-26T01:31:41.972Z,99231.78
2018-11-26T01:32:16.563Z,99231.34
2018-11-26T01:32:51.182Z,99234.74
2018-11-26T01:33:26.066Z,99229.78
2018-11-26T01:34:00.667Z,99227.27
2018-11-26T01:34:35.380Z,99229.03
2018-11-26T01:35:10.150Z,99234.08
2018-11-26T01:35:44.776Z,99235.84
2018-11-26T01:36:19.404Z,99238.11
2018-11-26T01:36:54.148Z,99234.87
2018-11-26T01:37:28.796Z,99227.53
2018-11-26T01:38:03.477Z,99240.05
2018-11-26T01:38:38.197Z,99240.53
2018-11-26T01:39:45.469Z,99237.13
2018-11-26T01:40:29.911Z,99238.98
2018-11-26T01:41:04.872Z,99240.88
2018-11-26T01:41:39.688Z,99241.63
2018-11-26T01:42:14.348Z,99245.67
2018-11-26T01:42:49.555Z,99239.95
2018-11-26T01:43:24.200Z,99242.52
2018-11-26T01:43:58.795Z,99243.84
2018-11-26T01:44:33.472Z,99239.20
2018-11-26T01:45:08.128Z,99246.91
2018-11-26T01:45:42.851Z,99235.56
2018-11-26T01:46:17.600Z,99237.73
2018-11-26T01:46:52.238Z,99236.54
2018-11-26T01:47:26.926Z,99233.66
2018-11-26T01:48:01.553Z,99243.78
2018-11-26T01:48:36.266Z,99236.09
2018-11-26T01:49:11.246Z,99236.54
2018-11-26T01:49:46.013Z,99239.50
2018-11-26T01:50:21.134Z,99236.98
2018-11-26T01:50:55.753Z,99236.94
2018-11-26T01:51:30.439Z,99234.10
2018-11-26T01:52:05.439Z,99231.17
2018-11-26T01:52:40.172Z,99234.86
2018-11-26T01:53:14.912Z,99231.05
2018-11-26T01:53:49.560Z,99231.54
2018-11-26T01:54:24.579Z,99233.78
2018-11-26T01:54:59.199Z,99225.08
2018-11-26T01:55:33.857Z,99230.97
2018-11-26T01:56:08.664Z,99225.97
2018-11-26T01:56:43.336Z,99233.62
2018-11-26T01:57:17.976Z,99234.41
2018-11-26T01:57:52.595Z,99218.13
2018-11-26T01:58:27.266Z,99227.86
2018-11-26T01:59:01.887Z,99228.30
2018-11-26T01:59:36.683Z,99220.05
2018-11-26T02:00:16.072Z,99236.08
2018-11-26T02:00:50.694Z,99231.70
2018-11-26T02:01:25.439Z,99227.10
2018-11-26T02:02:00.585Z,99230.63
2018-11-26T02:02:35.386Z,99231.11
2018-11-26T02:03:10.079Z,99231.11
2018-11-26T02:03:44.752Z,99230.67
2018-11-26T02:04:19.393Z,99225.19
2018-11-26T02:04:54.029Z,99231.30
2018-11-26T02:05:28.669Z,99235.64
2018-11-26T02:06:03.295Z,99240.48
2018-11-26T02:06:38.016Z,99235.48
2018-11-26T02:07:12.877Z,99232.84
2018-11-26T02:07:47.537Z,99233.23
2018-11-26T02:08:22.194Z,99238.81
2018-11-26T02:08:57.000Z,99240.00
2018-11-26T02:09:31.619Z,99242.45
2018-11-26T02:10:12.072Z,99236.08
2018-11-26T02:10:46.716Z,99238.20
2018-11-26T02:11:21.655Z,99239.88
2018-11-26T02:11:56.276Z,99243.41
2018-11-26T02:12:30.913Z,99241.21
2018-11-26T02:13:06.318Z,99240.33
2018-11-26T02:13:41.136Z,99232.75
2018-11-26T02:14:15.959Z,99229.18
2018-11-26T02:14:50.623Z,99237.67
2018-11-26T02:15:37.088Z,99239.31
2018-11-26T02:16:12.081Z,99231.09
2018-11-26T02:16:46.752Z,99234.91
2018-11-26T02:17:21.433Z,99232.30
2018-11-26T02:17:56.454Z,99233.88
2018-11-26T02:18:31.191Z,99230.56
2018-11-26T02:19:06.419Z,99228.00
2018-11-26T02:19:41.437Z,99227.25
2018-11-26T02:20:16.387Z,99236.94
2018-11-26T02:20:50.952Z,99237.59
2018-11-26T02:21:25.600Z,99228.17
2018-11-26T02:22:00.289Z,99238.05
2018-11-26T02:22:34.907Z,99238.53
2018-11-26T02:23:09.771Z,99236.53
2018-11-26T02:23:44.485Z,99235.96
2018-11-26T02:24:19.567Z,99239.37
2018-11-26T02:24:54.163Z,99238.88
2018-11-26T02:25:28.788Z,99241.23
2018-11-26T02:26:03.494Z,99238.76
2018-11-26T02:26:38.151Z,99239.72
2018-11-26T02:27:12.953Z,99240.48
2018-11-26T02:27:47.612Z,99242.97
2018-11-26T02:28:22.530Z,99239.74
2018-11-26T02:28:57.173Z,99242.00
2018-11-26T02:29:31.816Z,99241.33
2018-11-26T02:30:07.779Z,99238.45
2018-11-26T02:30:42.929Z,99242.35
2018-11-26T02:31:17.565Z,99241.86
2018-11-26T02:31:52.265Z,99236.91
2018-11-26T02:32:26.891Z,99237.97
2018-11-26T02:33:01.895Z,99240.14
2018-11-26T02:33:36.499Z,99236.64
2018-11-26T02:34:11.295Z,99230.05
2018-11-26T02:34:45.996Z,99234.74
2018-11-26T02:35:20.928Z,99231.20
2018-11-26T02:35:55.550Z,99232.61
2018-11-26T02:36:30.131Z,99233.01
2018-11-26T02:37:04.733Z,99234.91
2018-11-26T02:37:39.546Z,99231.34
2018-11-26T02:38:14.604Z,99231.78
2018-11-26T02:38:49.236Z,99230.63
2018-11-26T02:39:23.947Z,99229.21
2018-11-26T02:39:58.527Z,99231.51
2018-11-26T02:40:33.840Z,99236.59
2018-11-26T02:41:08.475Z,99229.08
2018-11-26T02:41:43.496Z,99231.11
2018-11-26T02:42:18.352Z,99234.56
2018-11-26T02:42:53.350Z,99230.71
2018-11-26T02:43:28.033Z,99234.47
2018-11-26T02:44:03.136Z,99223.11
2018-11-26T02:44:37.834Z,99236.64
2018-11-26T02:45:12.476Z,99229.78
2018-11-26T02:45:47.544Z,99230.63
2018-11-26T02:46:22.605Z,99231.46
2018-11-26T02:46:57.171Z,99232.18
2018-11-26T02:47:31.963Z,99228.55
2018-11-26T02:48:07.015Z,99225.27
2018-11-26T02:48:41.684Z,99230.50
2018-11-26T02:49:16.353Z,99228.45
2018-11-26T02:49:51.424Z,99229.27
2018-11-26T02:50:26.065Z,99226.86
2018-11-26T02:51:00.747Z,99226.69
2018-11-26T02:51:35.558Z,99218.28
2018-11-26T02:52:10.182Z,99227.27
2018-11-26T02:52:44.795Z,99225.58
2018-11-26T02:53:19.460Z,99225.18
2018-11-26T02:53:54.314Z,99224.78
2018-11-26T02:54:28.903Z,99225.18
2018-11-26T02:55:03.565Z,99221.82
2018-11-26T02:55:38.453Z,99225.63
2018-11-26T02:56:13.067Z,99221.06
2018-11-26T02:56:47.662Z,99219.73
2018-11-26T02:57:22.296Z,99215.09
2018-11-26T02:57:56.882Z,99221.33
2018-11-26T02:58:31.517Z,99217.04
2018-11-26T02:59:06.682Z,99225.98
2018-11-26T02:59:41.368Z,99223.69
2018-11-26T03:00:16.044Z,99220.23
2018-11-26T03:00:50.787Z,99217.34
2018-11-26T03:01:26.417Z,99220.36
2018-11-26T03:02:01.038Z,99217.66
2018-11-26T03:02:35.701Z,99223.05
2018-11-26T03:03:10.865Z,99219.64
2018-11-26T03:03:45.489Z,99216.77
2018-11-26T03:04:20.110Z,99222.30
2018-11-26T03:04:54.764Z,99221.91
2018-11-26T03:05:30.315Z,99217.34
2018-11-26T03:06:05.468Z,99220.67
2018-11-26T03:06:40.416Z,99217.27
2018-11-26T03:07:15.306Z,99224.08
2018-11-26T03:07:49.903Z,99222.80
2018-11-26T03:08:24.544Z,99225.71
2018-11-26T03:08:59.168Z,99216.90
2018-11-26T03:09:33.768Z,99218.55
2018-11-26T03:10:09.696Z,99219.78
2018-11-26T03:10:44.312Z,99216.83
2018-11-26T03:11:19.196Z,99221.91
2018-11-26T03:11:53.803Z,99220.14
2018-11-26T03:12:28.439Z,99216.28
2018-11-26T03:13:03.188Z,99219.39
2018-11-26T03:13:38.675Z,99211.99
2018-11-26T03:15:16.564Z,99214.56
2018-11-26T03:15:51.219Z,99218.81
2018-11-26T03:16:25.891Z,99221.55
2018-11-26T03:17:00.534Z,99219.97
2018-11-26T03:17:35.162Z,99214.12
2018-11-26T03:18:10.152Z,99224.38
2018-11-26T03:18:44.872Z,99222.22
2018-11-26T03:19:19.511Z,99215.05
2018-11-26T03:19:54.116Z,99212.39
2018-11-26T03:20:28.766Z,99216.59
2018-11-26T03:21:03.467Z,99217.88
2018-11-26T03:21:38.129Z,99214.73
2018-11-26T03:22:12.747Z,99221.95
2018-11-26T03:22:47.329Z,99212.17
2018-11-26T03:23:21.961Z,99217.70
2018-11-26T03:23:56.576Z,99222.79
2018-11-26T03:24:31.208Z,99217.80
2018-11-26T03:25:07.327Z,99214.52
2018-11-26T03:25:42.096Z,99215.35
2018-11-26T03:26:16.748Z,99216.95
2018-11-26T03:26:51.346Z,99219.92
2018-11-26T03:27:26.031Z,99219.52
2018-11-26T03:28:00.659Z,99213.80
2018-11-26T03:28:35.284Z,99216.24
2018-11-26T03:29:09.993Z,99219.83
2018-11-26T03:29:44.660Z,99219.08
2018-11-26T03:30:20.654Z,99214.61
2018-11-26T03:30:55.265Z,99219.97
2018-11-26T03:31:29.924Z,99218.36
2018-11-26T03:32:04.681Z,99220.41
2018-11-26T03:32:39.573Z,99220.41
2018-11-26T03:33:14.424Z,99218.98
2018-11-26T03:33:49.109Z,99226.38
2018-11-26T03:34:23.861Z,99221.42
2018-11-26T03:34:58.494Z,99222.30
2018-11-26T03:35:33.206Z,99221.91
2018-11-26T03:36:08.215Z,99225.41
2018-11-26T03:36:42.928Z,99226.16
2018-11-26T03:37:17.530Z,99221.52
2018-11-26T03:37:52.172Z,99231.38
2018-11-26T03:39:00.680Z,99230.89
2018-11-26T03:39:35.470Z,99229.96
2018-11-26T03:40:11.580Z,99229.47
2018-11-26T03:40:46.191Z,99219.25
2018-11-26T03:41:21.441Z,99228.02
2018-11-26T03:41:56.042Z,99226.78
2018-11-26T03:42:30.651Z,99222.00
2018-11-26T03:43:05.425Z,99224.22
2018-11-26T03:43:40.099Z,99222.93
2018-11-26T03:44:14.822Z,99223.37
2018-11-26T03:44:49.522Z,99221.77
2018-11-26T03:45:24.536Z,99222.53
2018-11-26T03:45:59.144Z,99228.95
2018-11-26T03:46:33.779Z,99225.23
2018-11-26T03:47:08.489Z,99224.88
2018-11-26T03:47:43.555Z,99235.09
2018-11-26T03:48:18.256Z,99223.55
2018-11-26T03:48:52.915Z,99233.24
2018-11-26T03:49:27.534Z,99223.59
2018-11-26T03:50:02.233Z,99234.25
2018-11-26T03:50:36.884Z,99233.59
2018-11-26T03:51:11.750Z,99234.34
2018-11-26T03:51:46.421Z,99232.36
2018-11-26T03:52:21.128Z,99238.29
2018-11-26T03:52:55.769Z,99231.47
2018-11-26T03:53:30.428Z,99230.14
2018-11-26T03:54:05.675Z,99228.24
2018-11-26T03:54:40.403Z,99232.44
2018-11-26T03:55:15.176Z,99237.63
2018-11-26T03:55:49.775Z,99231.37
2018-11-26T03:56:24.433Z,99233.16
2018-11-26T03:56:59.146Z,99227.27
2018-11-26T03:57:33.794Z,99229.20
2018-11-26T03:58:08.483Z,99226.78
2018-11-26T03:58:43.494Z,99231.56
2018-11-26T03:59:18.140Z,99224.48
2018-11-26T03:59:52.840Z,99229.84
2018-11-26T04:00:27.459Z,99232.09
2018-11-26T04:01:02.166Z,99230.84
2018-11-26T04:01:36.881Z,99227.89
2018-11-26T04:02:11.637Z,99228.77
2018-11-26T04:02:46.465Z,99223.36
2018-11-26T04:03:21.256Z,99227.17
2018-11-26T04:03:55.935Z,99229.13
2018-11-26T04:04:30.552Z,99230.84
2018-11-26T04:05:05.630Z,99229.84
2018-11-26T04:05:40.310Z,99226.51
2018-11-26T04:06:15.085Z,99230.05
2018-11-26T04:06:49.793Z,99233.06
2018-11-26T04:07:24.472Z,99230.50
2018-11-26T04:07:59.106Z,99231.38
2018-11-26T04:08:33.736Z,99226.38
2018-11-26T04:09:09.159Z,99227.48
2018-11-26T04:09:43.774Z,99226.69
2018-11-26T04:10:18.468Z,99230.94
2018-11-26T04:10:53.791Z,99221.02
2018-11-26T04:11:28.740Z,99228.55
2018-11-26T04:12:03.861Z,99224.66
2018-11-26T04:12:38.489Z,99229.84
2018-11-26T04:13:13.333Z,99227.27
2018-11-26T04:13:48.238Z,99227.97
2018-11-26T04:14:22.947Z,99229.97
2018-11-26T04:14:57.524Z,99222.84
2018-11-26T04:15:32.184Z,99222.98
2018-11-26T04:16:06.992Z,99220.53
2018-11-26T04:16:41.652Z,99219.34
2018-11-26T04:17:16.807Z,99219.83
2018-11-26T04:17:51.673Z,99221.02
2018-11-26T04:18:26.657Z,99214.78
2018-11-26T04:19:01.352Z,99218.55
2018-11-26T04:19:36.116Z,99218.99
2018-11-26T04:20:10.976Z,99220.80
2018-11-26T04:20:45.673Z,99226.33
2018-11-26T04:21:20.409Z,99220.23
2018-11-26T04:21:55.150Z,99220.23
2018-11-26T04:22:30.071Z,99223.31
2018-11-26T04:23:04.759Z,99224.08
2018-11-26T04:23:39.735Z,99224.97
2018-11-26T04:24:14.398Z,99227.09
2018-11-26T04:24:49.531Z,99217.78
2018-11-26T04:25:24.388Z,99232.18
2018-11-26T04:25:59.291Z,99228.77
2018-11-26T04:26:34.096Z,99224.60
2018-11-26T04:27:08.951Z,99229.75
2018-11-26T04:27:43.759Z,99222.22
2018-11-26T04:28:18.560Z,99219.73
2018-11-26T04:28:53.227Z,99224.83
2018-11-26T04:29:27.913Z,99229.70
2018-11-26T04:30:02.665Z,99221.64
2018-11-26T04:30:37.404Z,99225.94
2018-11-26T04:31:12.043Z,99223.10
2018-11-26T04:31:46.731Z,99225.23
2018-11-26T04:32:21.607Z,99224.78
2018-11-26T04:32:56.348Z,99225.10
2018-11-26T04:33:31.074Z,99227.58
2018-11-26T04:34:06.039Z,99225.72
2018-11-26T04:34:40.705Z,99217.58
2018-11-26T04:35:15.389Z,99221.03
2018-11-26T04:35:50.412Z,99219.75
2018-11-26T04:36:25.117Z,99220.31
2018-11-26T04:36:59.755Z,99218.94
2018-11-26T04:37:35.061Z,99225.84
2018-11-26T04:38:09.848Z,99225.23
2018-11-26T04:38:44.551Z,99222.39
2018-11-26T04:39:19.293Z,99221.11
2018-11-26T04:39:53.934Z,99222.39
2018-11-26T04:40:28.564Z,99224.07
2018-11-26T04:41:03.239Z,99222.00
2018-11-26T04:41:37.948Z,99222.93
2018-11-26T04:42:12.720Z,99224.66
2018-11-26T04:42:47.401Z,99216.95
2018-11-26T04:43:22.021Z,99221.25
2018-11-26T04:43:56.707Z,99226.83
2018-11-26T04:44:31.425Z,99227.22
2018-11-26T04:45:07.971Z,99228.28
2018-11-26T04:45:42.651Z,99226.65
2018-11-26T04:46:17.476Z,99229.56
2018-11-26T04:46:53.892Z,99233.02
2018-11-26T04:47:28.533Z,99230.89
2018-11-26T04:48:03.224Z,99230.50
2018-11-26T04:48:37.875Z,99231.25
2018-11-26T04:49:12.586Z,99232.13
2018-11-26T04:49:47.299Z,99235.14
2018-11-26T04:50:22.003Z,99229.21
2018-11-26T04:50:56.762Z,99235.62
2018-11-26T04:51:31.422Z,99232.48
2018-11-26T04:52:06.831Z,99235.62
2018-11-26T04:52:41.692Z,99228.38
2018-11-26T04:53:16.338Z,99229.21
2018-11-26T04:53:51.058Z,99230.63
2018-11-26T04:54:25.785Z,99232.04
2018-11-26T04:55:00.446Z,99235.14
2018-11-26T04:55:35.099Z,99231.73
2018-11-26T04:56:09.753Z,99227.98
2018-11-26T04:56:44.484Z,99225.53
2018-11-26T04:57:19.302Z,99225.80
2018-11-26T04:57:54.135Z,99226.38
2018-11-26T04:58:28.779Z,99232.67
2018-11-26T04:59:03.490Z,99229.83
2018-11-26T04:59:38.218Z,99229.92
2018-11-26T05:00:15.218Z,99232.05
2018-11-26T05:00:50.209Z,99228.64
2018-11-26T05:01:25.020Z,99229.73
2018-11-26T05:01:59.820Z,99228.94
2018-11-26T05:02:34.484Z,99226.91
2018-11-26T05:03:09.206Z,99226.81
2018-11-26T05:03:44.285Z,99221.73
2018-11-26T05:04:19.150Z,99225.58
2018-11-26T05:04:53.834Z,99225.58
2018-11-26T05:05:28.561Z,99219.77
2018-11-26T05:06:03.263Z,99223.63
2018-11-26T05:06:37.922Z,99215.53
2018-11-26T05:07:12.705Z,99220.09
2018-11-26T05:07:47.498Z,99215.97
2018-11-26T05:08:22.256Z,99220.27
2018-11-26T05:08:57.036Z,99223.23
2018-11-26T05:09:31.749Z,99215.22
2018-11-26T05:10:08.417Z,99219.16
2018-11-26T05:10:43.056Z,99215.87
2018-11-26T05:11:18.172Z,99219.77
2018-11-26T05:11:52.897Z,99223.18
2018-11-26T05:12:27.719Z,99224.52
2018-11-26T05:13:02.387Z,99225.80
2018-11-26T05:13:37.044Z,99223.50
2018-11-26T05:14:11.725Z,99214.25
2018-11-26T05:14:46.749Z,99222.22
2018-11-26T05:15:21.483Z,99221.91
2018-11-26T05:15:56.148Z,99220.36
2018-11-26T05:16:30.816Z,99195.84
2018-11-26T05:17:05.700Z,99226.64
2018-11-26T05:17:40.410Z,99228.68
2018-11-26T05:18:15.170Z,99225.48
2018-11-26T05:18:49.928Z,99218.37
2018-11-26T05:19:24.602Z,99226.02
2018-11-26T05:19:59.320Z,99226.52
2018-11-26T05:20:33.987Z,99227.88
2018-11-26T05:21:08.685Z,99226.19
2018-11-26T05:21:43.412Z,99225.39
2018-11-26T05:22:18.510Z,99225.84
2018-11-26T05:22:53.241Z,99230.58
2018-11-26T05:23:27.977Z,99228.45
2018-11-26T05:24:02.815Z,99222.52
2018-11-26T05:24:37.450Z,99223.94
2018-11-26T05:25:12.971Z,99227.12
2018-11-26T05:25:47.834Z,99224.20
2018-11-26T05:26:22.576Z,99223.77
2018-11-26T05:26:57.269Z,99225.39
2018-11-26T05:27:32.089Z,99222.17
2018-11-26T05:28:07.164Z,99219.82
2018-11-26T05:28:41.831Z,99216.20
2018-11-26T05:29:16.525Z,99223.36
2018-11-26T05:29:51.239Z,99225.36
2018-11-26T05:30:26.097Z,99222.17
2018-11-26T05:31:00.845Z,99223.50
2018-11-26T05:31:35.694Z,99222.14
2018-11-26T05:32:10.342Z,99218.45
2018-11-26T05:32:45.236Z,99218.11
2018-11-26T05:33:19.990Z,99218.23
2018-11-26T05:33:54.725Z,99216.77
2018-11-26T05:34:29.356Z,99219.82
2018-11-26T05:35:04.761Z,99220.94
2018-11-26T05:35:39.577Z,99218.49
2018-11-26T05:36:14.345Z,99215.17
2018-11-26T05:36:49.152Z,99219.87
2018-11-26T05:37:23.819Z,99218.63
2018-11-26T05:37:58.459Z,99213.09
2018-11-26T05:38:33.089Z,99216.95
2018-11-26T05:39:09.160Z,99215.13
2018-11-26T05:39:43.851Z,99214.92
2018-11-26T05:40:18.718Z,99215.53
2018-11-26T05:40:53.580Z,99218.63
2018-11-26T05:41:28.248Z,99214.90
2018-11-26T05:42:02.892Z,99219.20
2018-11-26T05:42:37.644Z,99217.07
2018-11-26T05:43:12.304Z,99219.07
2018-11-26T05:43:47.069Z,99219.52
2018-11-26T05:44:21.871Z,99225.48
2018-11-26T05:44:56.523Z,99213.94
2018-11-26T05:45:31.652Z,99216.41
2018-11-26T05:46:06.427Z,99216.77
2018-11-26T05:46:41.111Z,99206.42
2018-11-26T05:47:15.845Z,99214.42
2018-11-26T05:47:50.568Z,99216.42
2018-11-26T05:48:25.268Z,99221.24
2018-11-26T05:48:59.967Z,99217.53
2018-11-26T05:49:34.633Z,99214.38
2018-11-26T05:50:10.676Z,99214.59
2018-11-26T05:50:45.686Z,99213.68
2018-11-26T05:51:20.613Z,99212.92
2018-11-26T05:51:55.301Z,99219.87
2018-11-26T05:52:29.986Z,99222.83
2018-11-26T05:53:05.042Z,99221.23
2018-11-26T05:53:39.759Z,99221.76
2018-11-26T05:54:14.526Z,99220.66
2018-11-26T05:54:49.114Z,99220.27
2018-11-26T05:55:23.809Z,99222.84
2018-11-26T05:55:58.444Z,99220.00
2018-11-26T05:56:33.131Z,99221.25
2018-11-26T05:57:07.730Z,99219.73
2018-11-26T05:57:42.458Z,99222.84
2018-11-26T05:58:17.333Z,99223.86
2018-11-26T05:58:52.018Z,99224.30
2018-11-26T05:59:26.687Z,99217.97
2018-11-26T06:00:01.375Z,99221.90
2018-11-26T06:00:36.595Z,99217.25
2018-11-26T06:01:11.273Z,99223.69
2018-11-26T06:01:46.061Z,99212.48
2018-11-26T06:02:20.790Z,99213.98
2018-11-26T06:02:55.443Z,99217.48
2018-11-26T06:03:30.150Z,99216.33
2018-11-26T06:04:04.923Z,99218.94
2018-11-26T06:04:39.698Z,99216.02
2018-11-26T06:05:14.865Z,99218.63
2018-11-26T06:05:49.555Z,99219.07
2018-11-26T06:06:24.274Z,99218.98
2018-11-26T06:06:59.018Z,99224.39
2018-11-26T06:07:33.686Z,99217.30
2018-11-26T06:08:08.370Z,99223.27
2018-11-26T06:08:43.012Z,99217.34
2018-11-26T06:09:18.033Z,99224.16
2018-11-26T06:09:52.639Z,99218.31
2018-11-26T06:10:27.306Z,99223.80
2018-11-26T06:11:01.991Z,99224.60
2018-11-26T06:11:36.734Z,99217.61
2018-11-26T06:12:11.417Z,99219.33
2018-11-26T06:12:46.215Z,99221.90
2018-11-26T06:13:20.936Z,99222.43
2018-11-26T06:13:55.708Z,99227.52
2018-11-26T06:14:30.556Z,99225.00
2018-11-26T06:15:06.901Z,99224.95
2018-11-26T06:15:41.540Z,99225.56
2018-11-26T06:16:16.218Z,99225.21
2018-11-26T06:16:53.633Z,99225.05
2018-11-26T06:17:25.621Z,99228.01
2018-11-26T06:18:00.261Z,99229.20
2018-11-26T06:18:34.893Z,99226.23
2018-11-26T06:19:09.497Z,99225.05
2018-11-26T06:19:44.387Z,99231.37
2018-11-26T06:20:19.734Z,99230.88
2018-11-26T06:20:53.754Z,99231.06
2018-11-26T06:21:28.438Z,99225.35
2018-11-26T06:22:03.186Z,99231.33
2018-11-26T06:22:37.866Z,99220.43
2018-11-26T06:23:12.600Z,99224.64
2018-11-26T06:23:47.298Z,99218.56
2018-11-26T06:24:21.899Z,99226.27
2018-11-26T06:24:56.633Z,99225.44
2018-11-26T06:25:32.415Z,99220.88
2018-11-26T06:26:07.139Z,99217.20
2018-11-26T06:26:41.849Z,99225.82
2018-11-26T06:27:16.560Z,99227.12
2018-11-26T06:27:51.229Z,99222.95
2018-11-26T06:28:25.850Z,99226.97
2018-11-26T06:29:00.441Z,99224.05
2018-11-26T06:29:35.219Z,99221.48
2018-11-26T06:30:12.036Z,99224.61
2018-11-26T06:30:46.823Z,99226.17
2018-11-26T06:31:21.456Z,99231.79
2018-11-26T06:31:56.182Z,99235.16
2018-11-26T06:32:30.935Z,99226.73
2018-11-26T06:33:06.270Z,99227.17
2018-11-26T06:33:40.983Z,99212.08
2018-11-26T06:34:15.668Z,99233.39
2018-11-26T06:34:50.376Z,99233.39
2018-11-26T06:35:25.141Z,99234.10
2018-11-26T06:35:59.816Z,99239.05
2018-11-26T06:36:34.843Z,99232.35
2018-11-26T06:37:09.445Z,99236.88
2018-11-26T06:37:44.244Z,99238.95
2018-11-26T06:38:19.031Z,99234.80
2018-11-26T06:38:53.713Z,99235.23
2018-11-26T06:39:28.314Z,99236.16
2018-11-26T06:40:03.069Z,99234.08
2018-11-26T06:40:37.759Z,99237.08
2018-11-26T06:41:12.934Z,99232.11
2018-11-26T06:41:47.684Z,99227.30
2018-11-26T06:42:22.372Z,99240.93
2018-11-26T06:42:57.364Z,99240.37
2018-11-26T06:43:31.966Z,99246.78
2018-11-26T06:44:07.453Z,99244.62
2018-11-26T06:44:42.116Z,99246.06
2018-11-26T06:45:19.983Z,99238.52
2018-11-26T06:45:54.624Z,99238.12
2018-11-26T06:46:29.342Z,99238.64
2018-11-26T06:47:04.094Z,99249.47
2018-11-26T06:47:38.851Z,99243.05
2018-11-26T06:48:13.530Z,99240.28
2018-11-26T06:48:48.193Z,99240.28
2018-11-26T06:49:22.825Z,99243.25
2018-11-26T06:49:57.437Z,99241.61
2018-11-26T06:50:32.073Z,99229.59
2018-11-26T06:51:07.023Z,99241.56
2018-11-26T06:51:41.715Z,99245.20
2018-11-26T06:52:16.514Z,99238.92